Terminal Aerodrome Forecast
Issued by NWS

Home | Current Version | Previous Version | Text Only | Print | Product List | Glossary On
Versions: 1 2 3 4 5 6 7 8 9 10 11 12 13 14 15 16 17 18
139
FTUS43 KFGF 072320
TAFBJI
TAF
KBJI 072320Z 0800/0824 31020G30KT 2SM -SN BLSN OVC013
     FM080700 32017KT 6SM -SN OVC035
     FM081200 32017KT P6SM OVC035=

USA.gov is the U.S. government's official web portal to all federal, state and local government web resources and services.